Meteorológiai információk azoknak akik tudják olvasni.

METAR = LHBP 181030Z VRB03KT 9999 SCT023 19/13 Q1015 NOSIG

9 órás TAF = TAF TAF LHBP 242330Z 2423/2424 30008KT CAVOK BECMG 2506/2509 24010KT OVC030 TEMPO 2509/2515 24015G25KT 8000 -RA BKN013 OVC025 BECMG 2515/2518 30008KT CAVOK

24 órás TAF = TAF TAF LHBP 180515Z 1806/1906 VRB03KT 9999 FEW005 TEMPO 1806/1808 4000 BR BKN004 BECMG 1808/1810 BKN014 BECMG 1810/1813 21007KT SCT040 BECMG 1813/1816 12004KT CAVOK TEMPO 1900/1906 VRB12G24KT 4000 SHRA SCT040CB BKN070

ÁLLOMÁS.................... LHBP
ÉSZLELÉS................... Sat May 18, 12:30 CEST
MOST....................... Sat May 18, 12:37 CEST
IDŐ........................ 7 perccel ezelőtt
SZÉL....................... változó irányból 3 csomó
LÁTÁSTÁVOLSÁG.............. 6 mérföld
FELHŐZET................... elszórt
HŐMÉRSÉKLET................ 66°F (19°C)
HARMATPONT................. 55°F (13°C)
PÁRATARTALOM............... 68%
LÉGNYOMÁS.................. 1015 hPa (29.97 in Hg)

További információ LHBP állomásról

Meteor információ kérése:        állomásról.    

 

www.tothgeza.hu

 

English version
Copyright © 2003-2024 Tóth Géza Minden jog fenntartva.